createdAt,value
2018-05-04T00:00:30.675Z,10.00
2018-05-04T00:02:56.614Z,11.70
2018-05-04T00:05:22.570Z,11.30
2018-05-04T00:07:49.271Z,10.50
2018-05-04T00:10:15.230Z,13.63
2018-05-04T00:12:41.186Z,11.97
2018-05-04T00:15:07.889Z,11.23
2018-05-04T00:17:33.855Z,12.17
2018-05-04T00:19:59.818Z,12.43
2018-05-04T00:22:26.522Z,12.90
2018-05-04T00:24:52.479Z,13.67
2018-05-04T00:27:18.571Z,14.10
2018-05-04T00:29:44.526Z,13.43
2018-05-04T00:32:10.483Z,14.33
2018-05-04T00:34:36.438Z,15.13
2018-05-04T00:37:03.139Z,15.63
2018-05-04T00:39:29.090Z,14.47
2018-05-04T00:41:55.031Z,15.70
2018-05-04T00:44:20.987Z,14.93
2018-05-04T00:46:46.946Z,16.07
2018-05-04T00:49:12.898Z,16.03
2018-05-04T00:51:38.859Z,15.47
2018-05-04T00:54:17.334Z,16.57
2018-05-04T00:56:44.087Z,15.30
2018-05-04T00:59:10.778Z,16.30
2018-05-04T01:01:36.739Z,16.43
2018-05-04T01:04:02.703Z,16.57
2018-05-04T01:06:29.395Z,18.03
2018-05-04T01:08:55.399Z,15.43
2018-05-04T01:11:21.363Z,16.20
2018-05-04T01:13:47.318Z,16.20
2018-05-04T01:16:13.284Z,17.77
2018-05-04T01:18:39.232Z,16.63
2018-05-04T01:21:05.940Z,18.20
2018-05-04T01:23:31.899Z,16.50
2018-05-04T01:25:57.867Z,16.87
2018-05-04T01:28:23.835Z,16.50
2018-05-04T01:30:49.802Z,18.40
2018-05-04T01:33:15.755Z,17.00
2018-05-04T01:35:42.491Z,16.87
2018-05-04T01:38:08.450Z,17.90
2018-05-04T01:40:35.155Z,16.57
2018-05-04T01:43:01.122Z,17.97
2018-05-04T01:45:27.819Z,17.00
2018-05-04T01:47:53.787Z,17.20
2018-05-04T01:50:19.756Z,16.77
2018-05-04T01:52:47.218Z,16.90
2018-05-04T01:55:13.923Z,16.80
2018-05-04T01:57:39.888Z,17.90
2018-05-04T02:00:05.867Z,16.00
2018-05-04T02:02:31.835Z,16.70
2018-05-04T02:04:57.823Z,17.30
2018-05-04T02:07:23.787Z,16.00
2018-05-04T02:09:49.764Z,17.10
2018-05-04T02:12:15.767Z,16.83
2018-05-04T02:14:41.738Z,16.43
2018-05-04T02:17:07.699Z,15.67
2018-05-04T02:19:33.688Z,16.43
2018-05-04T02:21:59.646Z,15.70
2018-05-04T02:24:26.351Z,15.70
2018-05-04T02:26:52.307Z,14.73
2018-05-04T02:29:18.276Z,15.53
2018-05-04T02:31:44.975Z,15.60
2018-05-04T02:34:10.955Z,17.50
2018-05-04T02:36:36.908Z,15.03
2018-05-04T02:39:02.959Z,14.63
2018-05-04T02:41:28.919Z,16.27
2018-05-04T02:43:54.890Z,15.17
2018-05-04T02:46:21.619Z,15.07
2018-05-04T02:48:47.566Z,16.37
2018-05-04T02:51:13.527Z,14.03
2018-05-04T02:53:40.235Z,14.63
2018-05-04T02:56:06.220Z,14.30
2018-05-04T02:58:32.921Z,13.27
2018-05-04T03:00:58.884Z,13.93
2018-05-04T03:03:25.596Z,15.10
2018-05-04T03:05:51.563Z,13.60
2018-05-04T03:08:17.552Z,14.00
2018-05-04T03:10:43.563Z,14.33
2018-05-04T03:13:09.531Z,14.33
2018-05-04T03:15:35.515Z,13.23
2018-05-04T03:18:02.235Z,13.73
2018-05-04T03:20:28.213Z,12.73
2018-05-04T03:22:54.921Z,12.50
2018-05-04T03:25:20.879Z,12.10
2018-05-04T03:27:46.840Z,12.53
2018-05-04T03:30:12.802Z,12.30
2018-05-04T03:32:38.755Z,12.67
2018-05-04T03:35:04.727Z,11.20
2018-05-04T03:37:31.431Z,12.00
2018-05-04T03:39:57.391Z,11.50
2018-05-04T03:42:23.351Z,10.10
2018-05-04T03:44:50.059Z,11.33
2018-05-04T03:47:16.035Z,10.80
2018-05-04T03:49:42.746Z,10.00
2018-05-04T03:52:08.742Z,10.60
2018-05-04T03:54:34.675Z,9.50
2018-05-04T03:57:06.687Z,10.00
2018-05-04T03:59:45.143Z,10.00
2018-05-04T04:02:23.618Z,10.07
2018-05-04T04:04:49.516Z,9.00
2018-05-04T04:07:16.219Z,9.40
2018-05-04T04:09:42.218Z,9.87
2018-05-04T04:12:08.915Z,9.00
2018-05-04T04:14:34.882Z,9.07
2018-05-04T04:17:00.835Z,9.53
2018-05-04T04:19:27.544Z,8.80
2018-05-04T04:21:53.503Z,8.50
2018-05-04T04:24:20.251Z,9.07
2018-05-04T04:26:46.217Z,8.80
2018-05-04T04:29:12.927Z,7.70
2018-05-04T04:31:45.923Z,7.93
2018-05-04T04:34:11.886Z,9.77
2018-05-04T04:36:37.854Z,7.87
2018-05-04T04:39:04.579Z,7.77
2018-05-04T04:41:31.277Z,8.17
2018-05-04T04:43:57.236Z,6.53
2018-05-04T04:46:23.219Z,7.33
2018-05-04T04:48:49.180Z,8.10
2018-05-04T04:51:15.147Z,7.20
2018-05-04T04:53:41.108Z,8.00
2018-05-04T04:56:07.815Z,7.07
2018-05-04T04:58:33.779Z,6.73
2018-05-04T05:00:59.855Z,7.20
2018-05-04T05:03:25.810Z,7.00
2018-05-04T05:05:51.775Z,7.00
2018-05-04T05:08:17.731Z,6.90
2018-05-04T05:10:44.435Z,6.60
2018-05-04T05:13:10.395Z,6.70
2018-05-04T05:15:36.364Z,6.37
2018-05-04T05:18:03.063Z,6.10
2018-05-04T05:20:29.035Z,5.80
2018-05-04T05:22:55.734Z,6.63
2018-05-04T05:25:21.708Z,6.20
2018-05-04T05:27:47.681Z,6.30
2018-05-04T05:30:13.639Z,7.00
2018-05-04T05:32:39.602Z,5.67
2018-05-04T05:35:05.567Z,6.50
2018-05-04T05:37:32.275Z,5.30
2018-05-04T05:39:58.230Z,5.30
2018-05-04T05:42:24.249Z,6.70
2018-05-04T05:44:50.903Z,6.37
2018-05-04T05:47:16.876Z,5.60
2018-05-04T05:49:43.575Z,4.97
2018-05-04T05:52:10.291Z,5.70
2018-05-04T05:54:36.269Z,5.50
2018-05-04T05:57:02.675Z,6.20
2018-05-04T05:59:28.638Z,5.30
2018-05-04T06:01:54.599Z,5.50
2018-05-04T06:04:20.564Z,5.77
2018-05-04T06:06:47.266Z,6.13
2018-05-04T06:09:13.225Z,6.27
2018-05-04T06:11:39.191Z,5.67
2018-05-04T06:14:05.158Z,5.00
2018-05-04T06:16:31.123Z,5.00
2018-05-04T06:18:57.074Z,5.97
2018-05-04T06:21:23.039Z,5.57
2018-05-04T06:23:48.995Z,6.00
2018-05-04T06:26:14.951Z,5.17
2018-05-04T06:28:40.915Z,4.77
2018-05-04T06:31:07.619Z,6.00
2018-05-04T06:33:33.583Z,5.43
2018-05-04T06:35:59.564Z,7.40
2018-05-04T06:38:25.528Z,6.10
2018-05-04T06:40:52.227Z,5.60
2018-05-04T06:43:18.927Z,5.23
2018-05-04T06:45:44.898Z,6.00
2018-05-04T06:48:10.851Z,5.40
2018-05-04T06:50:37.551Z,5.07
2018-05-04T06:53:03.519Z,5.20
2018-05-04T06:55:29.483Z,5.40
2018-05-04T06:57:55.447Z,5.30
2018-05-04T07:00:21.407Z,6.20
2018-05-04T07:02:47.371Z,5.53
2018-05-04T07:05:14.071Z,5.80
2018-05-04T07:07:40.040Z,5.00
2018-05-04T07:10:06.003Z,6.37
2018-05-04T07:12:32.707Z,6.33
2018-05-04T07:14:58.737Z,5.63
2018-05-04T07:17:24.631Z,5.87
2018-05-04T07:19:50.587Z,5.73
2018-05-04T07:22:16.567Z,6.00
2018-05-04T07:24:42.525Z,5.80
2018-05-04T07:27:09.235Z,4.93
2018-05-04T07:29:35.195Z,5.47
2018-05-04T07:32:01.147Z,7.00
2018-05-04T07:34:27.854Z,6.23
2018-05-04T07:36:53.819Z,5.90
2018-05-04T07:39:20.597Z,5.57
2018-05-04T07:41:46.558Z,6.80
2018-05-04T07:44:12.523Z,5.93
2018-05-04T07:46:38.483Z,6.33
2018-05-04T07:49:05.207Z,6.63
2018-05-04T07:51:31.180Z,6.00
2018-05-04T07:53:57.166Z,7.10
2018-05-04T07:56:35.426Z,6.87
2018-05-04T07:59:02.130Z,6.57
2018-05-04T08:01:28.087Z,7.33
2018-05-04T08:03:54.075Z,7.70
2018-05-04T08:06:20.047Z,6.87
2018-05-04T08:08:46.015Z,6.80
2018-05-04T08:11:12.719Z,6.53
2018-05-04T08:13:38.675Z,6.70
2018-05-04T08:16:04.647Z,6.70
2018-05-04T08:18:31.357Z,6.80
2018-05-04T08:20:57.315Z,6.70
2018-05-04T08:23:23.266Z,7.00
2018-05-04T08:25:49.975Z,7.40
2018-05-04T08:28:15.935Z,7.60
2018-05-04T08:30:41.911Z,6.63
2018-05-04T08:33:07.868Z,6.30
2018-05-04T08:35:33.855Z,6.23
2018-05-04T08:38:00.571Z,8.13
2018-05-04T08:40:26.559Z,7.60
2018-05-04T08:42:52.588Z,7.23
2018-05-04T08:45:18.483Z,6.80
2018-05-04T08:47:44.443Z,7.80
2018-05-04T08:50:11.159Z,6.67
2018-05-04T08:52:37.119Z,7.10
2018-05-04T08:55:03.080Z,6.77
2018-05-04T08:57:29.114Z,9.07
2018-05-04T08:59:55.009Z,8.00
2018-05-04T09:02:20.986Z,7.47
2018-05-04T09:04:46.952Z,8.27
2018-05-04T09:07:12.915Z,7.50
2018-05-04T09:09:38.875Z,6.70
2018-05-04T09:12:05.579Z,7.00
2018-05-04T09:14:31.545Z,7.80
2018-05-04T09:16:58.251Z,7.50
2018-05-04T09:19:24.207Z,8.00
2018-05-04T09:21:50.214Z,7.13
2018-05-04T09:24:16.884Z,7.77
2018-05-04T09:26:42.854Z,8.10
2018-05-04T09:29:08.811Z,7.30
2018-05-04T09:31:34.778Z,8.60
2018-05-04T09:34:00.748Z,7.90
2018-05-04T09:36:26.743Z,7.90
2018-05-04T09:38:52.710Z,7.83
2018-05-04T09:41:18.672Z,7.67
2018-05-04T09:43:45.441Z,8.03
2018-05-04T09:46:11.335Z,7.90
2018-05-04T09:48:37.296Z,7.83
2018-05-04T09:51:04.007Z,7.80
2018-05-04T09:53:29.979Z,7.27
2018-05-04T09:55:56.736Z,7.50
2018-05-04T09:58:22.651Z,7.90
2018-05-04T10:00:49.347Z,7.73
2018-05-04T10:03:15.310Z,8.43
2018-05-04T10:05:41.275Z,7.77
2018-05-04T10:08:07.987Z,7.50
2018-05-04T10:10:33.947Z,7.50
2018-05-04T10:12:59.918Z,7.90
2018-05-04T10:15:26.619Z,7.60
2018-05-04T10:17:52.590Z,8.23
2018-05-04T10:20:19.291Z,8.20
2018-05-04T10:22:45.259Z,7.90
2018-05-04T10:25:11.324Z,8.67
2018-05-04T10:27:38.027Z,8.80
2018-05-04T10:30:04.011Z,8.53
2018-05-04T10:32:30.731Z,8.20
2018-05-04T10:34:56.699Z,8.17
2018-05-04T10:37:23.411Z,8.17
2018-05-04T10:39:49.383Z,8.20
2018-05-04T10:42:16.136Z,7.10
2018-05-04T10:44:42.835Z,7.10
2018-05-04T10:47:08.830Z,7.70
2018-05-04T10:49:34.802Z,7.70
2018-05-04T10:52:00.763Z,8.33
2018-05-04T10:54:26.748Z,7.70
2018-05-04T10:56:52.719Z,8.23
2018-05-04T10:59:18.702Z,8.37
2018-05-04T11:01:45.402Z,7.67
2018-05-04T11:04:11.371Z,7.63
2018-05-04T11:06:38.088Z,7.10
2018-05-04T11:09:04.069Z,7.63
2018-05-04T11:11:30.765Z,7.73
2018-05-04T11:13:56.735Z,8.87
2018-05-04T11:16:24.175Z,7.97
2018-05-04T11:18:50.151Z,8.97
2018-05-04T11:21:16.850Z,6.90
2018-05-04T11:23:42.819Z,7.50
2018-05-04T11:26:08.790Z,7.13
2018-05-04T11:28:34.756Z,7.57
2018-05-04T11:31:00.714Z,7.07
2018-05-04T11:33:26.683Z,8.33
2018-05-04T11:35:53.411Z,7.70
2018-05-04T11:38:19.372Z,8.30
2018-05-04T11:40:46.087Z,7.40
2018-05-04T11:43:12.044Z,7.70
2018-05-04T11:45:38.755Z,7.57
2018-05-04T11:48:04.731Z,7.97
2018-05-04T11:50:31.438Z,8.10
2018-05-04T11:52:57.410Z,8.07
2018-05-04T11:55:23.366Z,8.50
2018-05-04T11:57:50.075Z,8.57
2018-05-04T12:00:16.047Z,7.07
2018-05-04T12:02:42.763Z,7.00
2018-05-04T12:05:08.723Z,7.63
2018-05-04T12:07:35.448Z,9.43
2018-05-04T12:10:01.419Z,8.73
2018-05-04T12:12:28.135Z,8.03
2018-05-04T12:14:54.099Z,7.80
2018-05-04T12:17:20.807Z,8.20
2018-05-04T12:19:46.771Z,8.10
2018-05-04T12:22:12.739Z,6.80
2018-05-04T12:24:39.435Z,9.00
2018-05-04T12:27:06.143Z,7.10
2018-05-04T12:29:32.098Z,7.50
2018-05-04T12:31:58.154Z,8.63
2018-05-04T12:34:24.047Z,10.50
2018-05-04T12:36:50.754Z,8.02
2018-05-04T12:39:16.710Z,7.32
2018-05-04T12:41:42.674Z,8.13
2018-05-04T12:44:08.631Z,7.60
2018-05-04T12:46:34.599Z,8.40
2018-05-04T12:49:00.567Z,9.20
2018-05-04T12:51:27.275Z,8.67
2018-05-04T12:53:53.230Z,7.70
2018-05-04T12:56:20.015Z,8.63
2018-05-04T12:58:45.991Z,8.53
2018-05-04T13:01:11.967Z,7.97
2018-05-04T13:03:38.675Z,9.60
2018-05-04T13:06:04.638Z,8.40
2018-05-04T13:08:30.599Z,8.90
2018-05-04T13:10:57.307Z,9.20
2018-05-04T13:13:23.319Z,7.70
2018-05-04T13:15:49.279Z,8.67
2018-05-04T13:18:15.243Z,8.13
2018-05-04T13:20:41.947Z,8.60
2018-05-04T13:23:07.911Z,8.70
2018-05-04T13:25:33.876Z,8.60
2018-05-04T13:27:59.843Z,8.27
2018-05-04T13:30:25.819Z,8.53
2018-05-04T13:32:51.786Z,8.87
2018-05-04T13:35:17.763Z,8.00
2018-05-04T13:37:43.736Z,7.50
2018-05-04T13:40:10.439Z,8.15
2018-05-04T13:42:36.419Z,7.43
2018-05-04T13:45:03.135Z,7.80
2018-05-04T13:47:29.099Z,7.68
2018-05-04T13:49:55.827Z,7.93
2018-05-04T13:52:21.794Z,8.37
2018-05-04T13:54:47.763Z,8.50
2018-05-04T13:57:13.734Z,8.70
2018-05-04T13:59:39.703Z,9.27
2018-05-04T14:02:06.435Z,8.00
2018-05-04T14:04:32.403Z,8.37
2018-05-04T14:06:59.115Z,8.13
2018-05-04T14:09:25.084Z,7.43
2018-05-04T14:11:51.787Z,8.53
2018-05-04T14:14:17.775Z,8.43
2018-05-04T14:16:43.747Z,8.80
2018-05-04T14:19:09.711Z,8.30
2018-05-04T14:21:35.672Z,8.63
2018-05-04T14:24:02.386Z,7.80
2018-05-04T14:26:28.344Z,8.37
2018-05-04T14:28:54.310Z,9.40
2018-05-04T14:31:20.277Z,8.37
2018-05-04T14:33:46.241Z,8.50
2018-05-04T14:36:12.306Z,8.57
2018-05-04T14:38:39.015Z,8.30
2018-05-04T14:41:04.979Z,8.10
2018-05-04T14:43:31.706Z,8.33
2018-05-04T14:45:57.676Z,8.00
2018-05-04T14:48:24.384Z,8.30
2018-05-04T14:50:50.355Z,7.00
2018-05-04T14:53:17.055Z,8.13
2018-05-04T14:55:43.039Z,7.77
2018-05-04T14:58:09.004Z,7.60
2018-05-04T15:00:34.979Z,7.53
2018-05-04T15:03:00.940Z,8.33
2018-05-04T15:05:26.911Z,8.47
2018-05-04T15:07:52.874Z,9.23
2018-05-04T15:10:18.851Z,7.87
2018-05-04T15:12:45.555Z,7.77
2018-05-04T15:15:11.519Z,8.87
2018-05-04T15:17:37.491Z,8.50
2018-05-04T15:20:03.531Z,7.97
2018-05-04T15:22:29.492Z,8.13
2018-05-04T15:24:55.513Z,8.20
2018-05-04T15:27:21.428Z,8.23
2018-05-04T15:29:47.395Z,7.00
2018-05-04T15:32:13.359Z,9.17
2018-05-04T15:34:39.331Z,7.47
2018-05-04T15:37:05.297Z,8.67
2018-05-04T15:39:31.256Z,7.33
2018-05-04T15:41:57.218Z,7.30
2018-05-04T15:44:23.915Z,6.40
2018-05-04T15:46:49.879Z,6.73
2018-05-04T15:49:19.930Z,7.43
2018-05-04T15:51:51.967Z,7.50
2018-05-04T15:54:17.932Z,8.10
2018-05-04T15:56:43.903Z,8.07
2018-05-04T15:59:09.858Z,7.50
2018-05-04T16:01:35.839Z,6.80
2018-05-04T16:04:01.811Z,7.90
2018-05-04T16:06:27.847Z,7.33
2018-05-04T16:08:53.803Z,6.97
2018-05-04T16:11:19.782Z,7.80
2018-05-04T16:13:45.890Z,7.43
2018-05-04T16:16:11.726Z,7.97
2018-05-04T16:18:37.742Z,7.60
2018-05-04T16:21:04.403Z,7.23
2018-05-04T16:23:30.356Z,7.80
2018-05-04T16:25:56.327Z,7.60
2018-05-04T16:28:23.032Z,7.63
2018-05-04T16:30:48.996Z,7.50
2018-05-04T16:33:14.956Z,7.20
2018-05-04T16:35:40.907Z,7.57
2018-05-04T16:38:06.879Z,7.47
2018-05-04T16:40:32.839Z,9.13
2018-05-04T16:42:59.929Z,9.60
2018-05-04T16:45:25.896Z,9.50
2018-05-04T16:47:57.959Z,10.30
2018-05-04T16:50:23.924Z,8.63
2018-05-04T16:52:49.906Z,6.50
2018-05-04T16:55:16.013Z,6.73
2018-05-04T16:57:41.992Z,7.80
2018-05-04T17:00:07.980Z,6.70
2018-05-04T17:02:33.951Z,6.73
2018-05-04T17:04:59.935Z,7.50
2018-05-04T17:07:25.915Z,6.50
2018-05-04T17:09:51.899Z,6.43
2018-05-04T17:12:17.898Z,5.97
2018-05-04T17:14:43.875Z,5.70
2018-05-04T17:17:09.855Z,5.80
2018-05-04T17:19:35.844Z,5.50
2018-05-04T17:22:01.828Z,5.27
2018-05-04T17:24:27.870Z,4.23
2018-05-04T17:26:53.839Z,4.60
2018-05-04T17:29:19.803Z,4.67
2018-05-04T17:31:45.786Z,4.37
2018-05-04T17:34:11.757Z,4.70
2018-05-04T17:36:37.732Z,4.40
2018-05-04T17:39:04.719Z,4.27
2018-05-04T17:41:30.676Z,3.70
2018-05-04T17:43:56.643Z,4.17
2018-05-04T17:46:23.351Z,3.80
2018-05-04T17:48:49.337Z,3.50
2018-05-04T17:51:16.099Z,3.83
2018-05-04T17:53:42.794Z,3.33
2018-05-04T17:56:08.754Z,4.20
2018-05-04T17:58:34.719Z,3.40
2018-05-04T18:01:00.687Z,3.93
2018-05-04T18:03:26.662Z,3.73
2018-05-04T18:05:52.619Z,3.87
2018-05-04T18:08:19.327Z,4.10
2018-05-04T18:10:45.287Z,4.00
2018-05-04T18:13:11.257Z,3.20
2018-05-04T18:15:37.222Z,3.60
2018-05-04T18:18:03.191Z,3.00
2018-05-04T18:20:29.144Z,3.50
2018-05-04T18:22:55.848Z,3.80
2018-05-04T18:25:21.846Z,2.90
2018-05-04T18:27:47.815Z,4.33
2018-05-04T18:30:13.806Z,3.40
2018-05-04T18:32:40.520Z,3.33
2018-05-04T18:35:06.488Z,3.60
2018-05-04T18:37:33.192Z,4.03
2018-05-04T18:39:59.158Z,3.50
2018-05-04T18:42:25.115Z,3.33
2018-05-04T18:44:51.075Z,3.50
2018-05-04T18:47:17.038Z,4.47
2018-05-04T18:49:43.007Z,3.53
2018-05-04T18:52:09.711Z,4.00
2018-05-04T18:54:35.682Z,3.07
2018-05-04T18:57:01.675Z,3.53
2018-05-04T18:59:27.638Z,3.50
2018-05-04T19:01:53.606Z,3.20
2018-05-04T19:04:19.575Z,3.40
2018-05-04T19:06:45.539Z,2.90
2018-05-04T19:09:11.513Z,3.40
2018-05-04T19:11:37.479Z,3.97
2018-05-04T19:14:03.462Z,3.37
2018-05-04T19:16:30.171Z,2.53
2018-05-04T19:18:56.147Z,3.23
2018-05-04T19:21:22.107Z,3.23
2018-05-04T19:23:48.075Z,4.30
2018-05-04T19:26:14.035Z,3.20
2018-05-04T19:28:39.991Z,2.93
2018-05-04T19:31:06.711Z,3.00
2018-05-04T19:33:32.671Z,2.53
2018-05-04T19:35:58.636Z,2.50
2018-05-04T19:38:24.591Z,3.40
2018-05-04T19:40:50.555Z,2.80
2018-05-04T19:43:16.519Z,3.13
2018-05-04T19:45:43.234Z,2.90
2018-05-04T19:48:09.199Z,3.00
2018-05-04T19:50:35.907Z,3.37
2018-05-04T19:53:01.862Z,3.27
2018-05-04T19:55:27.826Z,3.10
2018-05-04T19:57:54.547Z,3.47
2018-05-04T20:00:20.511Z,2.47
2018-05-04T20:02:47.222Z,2.80
2018-05-04T20:05:13.244Z,3.03
2018-05-04T20:07:39.207Z,3.60
2018-05-04T20:10:05.187Z,2.77
2018-05-04T20:12:31.147Z,2.70
2018-05-04T20:14:57.111Z,2.67
2018-05-04T20:17:23.079Z,3.00
2018-05-04T20:19:49.779Z,2.57
2018-05-04T20:22:15.742Z,2.87
2018-05-04T20:24:41.704Z,3.17
2018-05-04T20:27:08.426Z,2.53
2018-05-04T20:29:34.391Z,2.80
2018-05-04T20:32:01.111Z,2.93
2018-05-04T20:34:27.079Z,2.67
2018-05-04T20:36:53.795Z,2.87
2018-05-04T20:39:19.771Z,3.03
2018-05-04T20:41:45.742Z,3.20
2018-05-04T20:44:11.702Z,2.70
2018-05-04T20:46:37.691Z,3.00
2018-05-04T20:49:03.643Z,2.63
2018-05-04T20:51:29.607Z,3.13
2018-05-04T20:53:55.667Z,2.47
2018-05-04T20:56:22.379Z,2.50
2018-05-04T20:58:48.418Z,2.90
2018-05-04T21:01:15.070Z,2.57
2018-05-04T21:03:41.039Z,2.60
2018-05-04T21:06:07.802Z,2.73
2018-05-04T21:08:34.563Z,2.93
2018-05-04T21:11:00.597Z,3.10
2018-05-04T21:13:26.551Z,2.70
2018-05-04T21:15:52.519Z,2.77
2018-05-04T21:18:19.250Z,3.70
2018-05-04T21:20:45.210Z,2.67
2018-05-04T21:23:11.179Z,2.50
2018-05-04T21:25:37.888Z,2.83
2018-05-04T21:28:03.864Z,2.63
2018-05-04T21:30:30.571Z,3.57
2018-05-04T21:32:56.556Z,2.80
2018-05-04T21:35:23.252Z,2.73
2018-05-04T21:37:49.219Z,3.57
2018-05-04T21:40:15.193Z,3.00
2018-05-04T21:42:41.208Z,2.67
2018-05-04T21:45:07.912Z,2.93
2018-05-04T21:47:33.887Z,3.07
2018-05-04T21:50:00.589Z,2.57
2018-05-04T21:52:26.574Z,2.47
2018-05-04T21:54:53.275Z,2.90
2018-05-04T21:57:19.250Z,2.80
2018-05-04T21:59:45.287Z,3.10
2018-05-04T22:02:11.299Z,2.73
2018-05-04T22:04:37.346Z,3.23
2018-05-04T22:07:04.091Z,2.80
2018-05-04T22:09:30.063Z,2.67
2018-05-04T22:11:56.766Z,2.70
2018-05-04T22:14:22.743Z,3.00
2018-05-04T22:16:49.459Z,3.00
2018-05-04T22:19:15.436Z,2.77
2018-05-04T22:21:42.203Z,3.00
2018-05-04T22:24:08.175Z,2.77
2018-05-04T22:26:34.147Z,2.80
2018-05-04T22:29:00.871Z,2.60
2018-05-04T22:31:26.831Z,2.60
2018-05-04T22:33:52.798Z,2.70
2018-05-04T22:36:18.771Z,2.70
2018-05-04T22:38:44.732Z,3.10
2018-05-04T22:41:10.806Z,2.83
2018-05-04T22:43:36.770Z,3.10
2018-05-04T22:46:02.735Z,2.80
2018-05-04T22:48:28.703Z,3.30
2018-05-04T22:50:54.681Z,2.70
2018-05-04T22:53:20.679Z,3.27
2018-05-04T22:55:46.635Z,2.93
2018-05-04T22:58:12.643Z,3.27
2018-05-04T23:00:38.618Z,3.53
2018-05-04T23:03:04.578Z,3.50
2018-05-04T23:05:30.551Z,3.40
2018-05-04T23:07:56.507Z,3.90
2018-05-04T23:10:23.546Z,3.03
2018-05-04T23:12:49.499Z,3.70
2018-05-04T23:15:15.507Z,3.80
2018-05-04T23:17:41.496Z,2.87
2018-05-04T23:20:07.479Z,3.53
2018-05-04T23:22:33.503Z,3.40
2018-05-04T23:25:00.279Z,3.23
2018-05-04T23:27:26.318Z,3.80
2018-05-04T23:29:52.302Z,3.83
2018-05-04T23:32:18.264Z,4.10
2018-05-04T23:34:44.271Z,3.30
2018-05-04T23:37:10.232Z,4.10
2018-05-04T23:39:36.941Z,3.60
2018-05-04T23:42:02.911Z,3.53
2018-05-04T23:44:29.640Z,3.70
2018-05-04T23:46:55.611Z,3.50
2018-05-04T23:49:21.583Z,3.30
2018-05-04T23:51:47.583Z,3.23
2018-05-04T23:54:13.555Z,3.80
2018-05-04T23:56:39.519Z,3.80
2018-05-04T23:59:05.499Z,3.23
